createdAt,value
2023-03-22T00:02:26.162Z,7.30
2023-03-22T00:04:56.458Z,6.50
2023-03-22T00:07:25.125Z,6.25
2023-03-22T00:09:53.526Z,7.07
2023-03-22T00:12:21.942Z,7.00
2023-03-22T00:14:50.510Z,7.80
2023-03-22T00:17:18.898Z,7.47
2023-03-22T00:19:47.420Z,7.40
2023-03-22T00:22:17.209Z,6.55
2023-03-22T00:24:45.821Z,6.67
2023-03-22T00:27:14.649Z,6.22
2023-03-22T00:29:43.419Z,6.47
2023-03-22T00:32:11.798Z,6.97
2023-03-22T00:34:40.340Z,6.47
2023-03-22T00:37:09.081Z,7.03
2023-03-22T00:39:39.065Z,7.38
2023-03-22T00:42:08.159Z,6.40
2023-03-22T00:44:36.449Z,7.28
2023-03-22T00:47:05.074Z,6.63
2023-03-22T00:49:35.118Z,6.65
2023-03-22T00:52:03.473Z,7.15
2023-03-22T00:54:31.774Z,5.97
2023-03-22T00:57:01.437Z,6.63
2023-03-22T00:59:30.327Z,6.30
2023-03-22T01:01:59.118Z,6.00
2023-03-22T01:04:27.917Z,7.18
2023-03-22T01:06:59.263Z,6.80
2023-03-22T01:09:30.843Z,6.32
2023-03-22T01:12:02.416Z,6.35
2023-03-22T01:14:31.731Z,6.78
2023-03-22T01:17:00.432Z,6.63
2023-03-22T01:19:28.919Z,6.22
2023-03-22T01:21:58.096Z,5.82
2023-03-22T01:24:26.692Z,7.10
2023-03-22T01:26:55.157Z,6.50
2023-03-22T01:29:25.092Z,6.03
2023-03-22T01:31:54.170Z,6.05
2023-03-22T01:34:22.884Z,6.40
2023-03-22T01:36:51.845Z,7.15
2023-03-22T01:39:20.560Z,6.40
2023-03-22T01:41:51.749Z,6.10
2023-03-22T01:44:24.644Z,6.78
2023-03-22T01:46:55.803Z,6.95
2023-03-22T01:49:29.839Z,6.85
2023-03-22T01:52:03.932Z,6.50
2023-03-22T01:55:01.817Z,7.82
2023-03-22T01:57:44.879Z,8.35
2023-03-22T02:00:20.627Z,7.70
2023-03-22T02:03:09.433Z,8.95
2023-03-22T02:05:44.871Z,9.32
2023-03-22T02:08:15.196Z,8.55
2023-03-22T02:11:00.597Z,8.55
2023-03-22T02:14:00.750Z,8.60
2023-03-22T02:17:20.699Z,8.77
2023-03-22T02:21:03.950Z,9.05
2023-03-22T02:24:11.823Z,9.15
2023-03-22T02:27:31.200Z,9.60
2023-03-22T02:30:32.273Z,10.15
2023-03-22T02:33:35.817Z,9.90
2023-03-22T02:36:42.856Z,10.85
2023-03-22T02:39:25.554Z,10.38
2023-03-22T02:42:10.947Z,10.32
2023-03-22T02:44:44.273Z,10.63
2023-03-22T02:47:23.478Z,10.68
2023-03-22T02:50:00.343Z,10.65
2023-03-22T02:52:35.985Z,10.63
2023-03-22T02:55:12.821Z,11.25
2023-03-22T02:57:48.335Z,10.48
2023-03-22T03:00:19.485Z,10.18
2023-03-22T03:02:52.384Z,10.38
2023-03-22T03:05:22.875Z,10.43
2023-03-22T03:07:58.441Z,10.73
2023-03-22T03:10:29.013Z,10.93
2023-03-22T03:12:57.357Z,11.25
2023-03-22T03:15:25.962Z,10.57
2023-03-22T03:18:26.377Z,11.00
2023-03-22T03:21:04.399Z,10.63
2023-03-22T03:23:43.206Z,11.13
2023-03-22T03:26:25.108Z,11.07
2023-03-22T03:29:00.670Z,11.55
2023-03-22T03:31:36.408Z,10.85
2023-03-22T03:34:14.971Z,11.23
2023-03-22T03:36:52.322Z,11.65
2023-03-22T03:39:23.521Z,11.13
2023-03-22T03:41:57.722Z,11.38
2023-03-22T03:44:28.465Z,12.23
2023-03-22T03:46:57.480Z,11.77
2023-03-22T03:49:27.133Z,12.88
2023-03-22T03:51:57.272Z,12.60
2023-03-22T03:54:26.000Z,13.15
2023-03-22T03:56:56.015Z,12.27
2023-03-22T03:59:24.399Z,12.57
2023-03-22T04:01:54.274Z,12.02
2023-03-22T04:04:29.803Z,11.48
2023-03-22T04:07:06.094Z,11.23
2023-03-22T04:09:40.406Z,11.18
2023-03-22T04:12:18.571Z,10.70
2023-03-22T04:15:06.926Z,11.52
2023-03-22T04:17:36.005Z,10.90
2023-03-22T04:20:06.173Z,11.25
2023-03-22T04:22:38.345Z,10.30
2023-03-22T04:25:11.758Z,10.77
2023-03-22T04:27:47.232Z,10.25
2023-03-22T04:30:18.892Z,10.48
2023-03-22T04:32:59.099Z,9.57
2023-03-22T04:35:40.098Z,9.32
2023-03-22T04:38:09.748Z,9.88
2023-03-22T04:40:38.867Z,10.45
2023-03-22T04:43:19.633Z,9.45
2023-03-22T04:45:58.256Z,9.25
2023-03-22T04:48:32.545Z,9.38
2023-03-22T04:53:39.473Z,9.35
2023-03-22T04:56:11.790Z,8.90
2023-03-22T04:58:43.592Z,8.93
2023-03-22T05:01:14.013Z,9.13
2023-03-22T05:03:47.369Z,9.15
2023-03-22T05:06:18.362Z,8.00
2023-03-22T05:09:05.985Z,8.30
2023-03-22T05:11:34.578Z,8.82
2023-03-22T05:14:30.527Z,8.15
2023-03-22T05:16:58.986Z,7.80
2023-03-22T05:19:27.833Z,7.57
2023-03-22T05:21:58.545Z,7.03
2023-03-22T05:24:39.765Z,7.93
2023-03-22T05:27:14.198Z,7.68
2023-03-22T05:29:45.244Z,6.47
2023-03-22T05:32:25.784Z,6.80
2023-03-22T05:34:57.028Z,6.57
2023-03-22T05:37:32.849Z,6.50
2023-03-22T05:40:01.701Z,6.97
2023-03-22T05:42:37.551Z,6.63
2023-03-22T05:45:17.135Z,6.07
2023-03-22T05:47:49.750Z,6.50
2023-03-22T05:50:24.030Z,6.53
2023-03-22T05:52:53.363Z,6.47
2023-03-22T05:55:44.894Z,6.38
2023-03-22T05:58:18.949Z,6.40
2023-03-22T06:00:51.421Z,7.28
2023-03-22T06:03:22.380Z,6.13
2023-03-22T06:05:56.946Z,6.57
2023-03-22T06:08:41.575Z,5.80
2023-03-22T06:11:10.303Z,5.88
2023-03-22T06:13:38.961Z,5.97
2023-03-22T06:16:11.158Z,6.13
2023-03-22T06:18:39.740Z,5.97
2023-03-22T06:21:12.062Z,5.47
2023-03-22T06:23:40.501Z,5.93
2023-03-22T06:26:11.367Z,5.75
2023-03-22T06:28:40.769Z,6.25
2023-03-22T06:31:11.466Z,6.65
2023-03-22T06:33:59.378Z,6.25
2023-03-22T06:36:48.029Z,5.45
2023-03-22T06:39:29.528Z,6.15
2023-03-22T06:41:57.922Z,5.60
2023-03-22T06:44:26.470Z,6.70
2023-03-22T06:47:08.858Z,6.47
2023-03-22T06:49:53.862Z,6.03
2023-03-22T06:52:26.815Z,6.25
2023-03-22T06:54:56.779Z,6.55
2023-03-22T06:57:25.987Z,5.45
2023-03-22T06:59:54.520Z,6.28
2023-03-22T07:02:24.362Z,6.18
2023-03-22T07:05:14.309Z,5.97
2023-03-22T07:07:43.546Z,5.63
2023-03-22T07:10:12.057Z,6.30
2023-03-22T07:12:40.606Z,5.93
2023-03-22T07:15:13.597Z,5.95
2023-03-22T07:18:02.844Z,6.30
2023-03-22T07:20:36.887Z,6.97
2023-03-22T07:23:05.878Z,6.05
2023-03-22T07:25:40.405Z,6.50
2023-03-22T07:28:23.092Z,5.68
2023-03-22T07:31:02.161Z,6.47
2023-03-22T07:33:35.508Z,6.47
2023-03-22T07:36:03.869Z,7.28
2023-03-22T07:38:32.238Z,6.75
2023-03-22T07:41:00.601Z,6.28
2023-03-22T07:43:54.028Z,6.82
2023-03-22T07:46:25.094Z,6.40
2023-03-22T07:49:33.075Z,6.82
2023-03-22T07:52:09.116Z,7.55
2023-03-22T07:54:37.424Z,7.25
2023-03-22T07:57:08.612Z,6.20
2023-03-22T07:59:43.504Z,6.47
2023-03-22T08:02:12.404Z,6.13
2023-03-22T08:04:53.174Z,5.97
2023-03-22T08:07:43.191Z,6.40
2023-03-22T08:10:13.071Z,6.28
2023-03-22T08:12:41.829Z,6.75
2023-03-22T08:15:22.865Z,6.82
2023-03-22T08:17:51.927Z,6.60
2023-03-22T08:20:32.772Z,6.63
2023-03-22T08:23:07.916Z,6.85
2023-03-22T08:25:59.352Z,6.22
2023-03-22T08:28:27.845Z,6.90
2023-03-22T08:30:56.177Z,7.57
2023-03-22T08:33:25.370Z,6.47
2023-03-22T08:36:08.499Z,6.22
2023-03-22T08:38:45.210Z,6.63
2023-03-22T08:41:16.106Z,6.68
2023-03-22T08:43:44.713Z,7.00
2023-03-22T08:46:13.206Z,6.40
2023-03-22T08:48:42.284Z,6.57
2023-03-22T08:51:27.672Z,6.20
2023-03-22T08:54:19.127Z,6.35
2023-03-22T08:57:09.447Z,6.72
2023-03-22T09:00:00.558Z,6.35
2023-03-22T09:02:45.339Z,6.68
2023-03-22T09:05:14.730Z,6.35
2023-03-22T09:07:45.600Z,6.07
2023-03-22T09:10:25.152Z,6.35
2023-03-22T09:12:53.725Z,6.57
2023-03-22T09:15:22.013Z,6.55
2023-03-22T09:18:04.967Z,6.82
2023-03-22T09:20:34.623Z,6.65
2023-03-22T09:23:05.313Z,6.80
2023-03-22T09:25:33.743Z,6.57
2023-03-22T09:28:02.466Z,7.72
2023-03-22T09:30:31.046Z,6.97
2023-03-22T09:32:59.452Z,6.88
2023-03-22T09:35:27.719Z,6.88
2023-03-22T09:38:06.556Z,7.05
2023-03-22T09:40:36.630Z,6.43
2023-03-22T09:43:09.103Z,7.80
2023-03-22T09:45:43.769Z,6.32
2023-03-22T09:48:18.280Z,7.20
2023-03-22T09:50:49.989Z,7.40
2023-03-22T09:53:21.237Z,7.22
2023-03-22T09:55:56.876Z,7.72
2023-03-22T09:58:32.912Z,8.52
2023-03-22T10:01:05.844Z,8.00
2023-03-22T10:04:14.315Z,6.75
2023-03-22T10:06:50.723Z,7.40
2023-03-22T10:09:30.557Z,7.30
2023-03-22T10:12:05.164Z,6.80
2023-03-22T10:14:41.341Z,7.15
2023-03-22T10:17:14.665Z,7.50
2023-03-22T10:19:53.433Z,6.45
2023-03-22T10:22:27.912Z,6.38
2023-03-22T10:24:58.626Z,6.97
2023-03-22T10:30:02.164Z,7.18
2023-03-22T10:32:54.720Z,7.38
2023-03-22T10:35:27.291Z,6.45
2023-03-22T10:40:31.575Z,6.90
2023-03-22T10:43:04.714Z,6.20
2023-03-22T10:45:36.191Z,6.85
2023-03-22T10:48:10.741Z,6.38
2023-03-22T10:50:43.448Z,6.28
2023-03-22T10:53:19.396Z,6.90
2023-03-22T10:55:49.200Z,5.95
2023-03-22T10:58:19.871Z,5.90
2023-03-22T11:03:31.825Z,6.10
2023-03-22T11:06:08.754Z,6.35
2023-03-22T11:08:45.633Z,6.88
2023-03-22T11:11:23.394Z,6.00
2023-03-22T11:14:04.308Z,6.32
2023-03-22T11:16:34.048Z,6.80
2023-03-22T11:19:04.028Z,6.73
2023-03-22T11:21:34.455Z,7.00
2023-03-22T11:24:06.920Z,6.15
2023-03-22T11:26:41.373Z,7.07
2023-03-22T11:29:17.988Z,7.00
2023-03-22T11:31:57.186Z,6.97
2023-03-22T11:34:29.446Z,7.30
2023-03-22T11:37:01.292Z,7.30
2023-03-22T11:39:31.048Z,6.72
2023-03-22T11:42:03.969Z,7.37
2023-03-22T11:44:35.931Z,7.60
2023-03-22T11:47:08.957Z,7.30
2023-03-22T11:49:46.453Z,6.63
2023-03-22T11:52:20.012Z,6.75
2023-03-22T11:54:49.020Z,6.82
2023-03-22T11:57:23.004Z,6.75
2023-03-22T11:59:59.547Z,6.68
2023-03-22T12:02:31.690Z,7.07
2023-03-22T12:05:09.381Z,6.70
2023-03-22T12:07:39.636Z,7.93
2023-03-22T12:10:17.330Z,6.57
2023-03-22T12:12:52.346Z,7.13
2023-03-22T12:15:24.178Z,8.45
2023-03-22T12:17:58.266Z,7.50
2023-03-22T12:20:38.052Z,8.13
2023-03-22T12:23:16.299Z,7.97
2023-03-22T12:25:51.690Z,7.60
2023-03-22T12:28:26.514Z,6.88
2023-03-22T12:30:58.607Z,6.05
2023-03-22T12:33:30.992Z,7.68
2023-03-22T12:36:03.625Z,7.28
2023-03-22T12:38:39.246Z,7.18
2023-03-22T12:41:12.782Z,7.05
2023-03-22T12:43:50.024Z,6.63
2023-03-22T12:46:22.649Z,7.47
2023-03-22T12:48:54.394Z,6.90
2023-03-22T12:51:22.878Z,7.22
2023-03-22T12:53:54.898Z,7.57
2023-03-22T12:56:27.751Z,7.65
2023-03-22T12:59:01.192Z,6.88
2023-03-22T13:01:40.654Z,6.78
2023-03-22T13:04:32.669Z,7.05
2023-03-22T13:07:16.261Z,6.63
2023-03-22T13:09:46.602Z,7.60
2023-03-22T13:12:33.607Z,7.22
2023-03-22T13:15:41.301Z,7.15
2023-03-22T13:18:33.456Z,7.28
2023-03-22T13:21:14.436Z,7.90
2023-03-22T13:26:45.710Z,8.35
2023-03-22T13:29:19.687Z,8.88
2023-03-22T13:31:58.680Z,8.00
2023-03-22T13:34:39.937Z,7.85
2023-03-22T13:37:25.308Z,8.60
2023-03-22T13:39:53.829Z,7.32
2023-03-22T13:42:24.973Z,7.45
2023-03-22T13:45:02.405Z,7.55
2023-03-22T13:47:35.935Z,7.57
2023-03-22T13:50:13.279Z,7.70
2023-03-22T13:52:44.884Z,8.15
2023-03-22T13:55:42.335Z,8.35
2023-03-22T13:58:12.929Z,7.47
2023-03-22T14:00:49.550Z,7.32
2023-03-22T14:03:28.557Z,6.90
2023-03-22T14:06:15.058Z,7.82
2023-03-22T14:08:45.514Z,7.38
2023-03-22T14:11:28.098Z,6.63
2023-03-22T14:14:02.070Z,6.93
2023-03-22T14:16:39.578Z,7.65
2023-03-22T14:19:17.951Z,6.80
